Weather at Vertientes Southwest Agricultural Airport

Public forecast

Using degrees Celsius for public forecast. Weather courtesy of forecast.io.

Closest aviation weather report (METAR) to Vertientes Southwest Agricultural Airport

Closest report is Ignacio Agramonte International Airport, 31.6 nm (58.5 km) ENE.

2024/06/18 17:50 (retrieved 39 minutes ago)

MUCM 181750Z 05016KT 9000 BKN024TCU 32/23 Q1012

Closest aviation forecast (TAF) to Vertientes Southwest Agricultural Airport

Closest forecast is Ignacio Agramonte International Airport, 31.6 nm (58.5 km) ENE.

2024/06/18 18:06 (retrieved 23 minutes ago)

TAF MUCM 181700Z 1818/1918 06009KT 9000 SCT020 TEMPO 1818/1823 VRB12KT 5000 SHRA RA FEW018CB BKN020 BECMG 1901/1903 VRB04KT BECMG 1912/1914 07009KT